Time;durP1;ratioP1;P1;durP2;ratioP2;P2;SDS_P1;SDS_P2;PMS_P1;PMS_P2;Temp;Humidity;BMP_temperature;BMP_pressure;BME280_temperature;BME280_humidity;BME280_pressure;Samples;Min_cycle;Max_cycle;Signal;HPM_P1;HPM_P2
2023/08/21 00:01:30;;;;;;;8.95;3.58;;;;;;;-147.16;100.00;58666.56;7401048;19;20027;-66
2023/08/21 00:03:58;;;;;;;5.03;2.92;;;;;;;-147.16;100.00;58666.56;7399419;19;20018;-65
2023/08/21 00:06:26;;;;;;;7.05;3.40;;;;;;;-147.16;100.00;58666.56;7401280;19;20019;-64
2023/08/21 00:08:57;;;;;;;6.25;3.58;;;;;;;-147.16;100.00;58666.56;7401202;19;20022;-65
2023/08/21 00:11:26;;;;;;;5.10;3.42;;;;;;;-147.16;100.00;58666.56;7398675;19;20078;-64
2023/08/21 00:13:54;;;;;;;7.82;3.83;;;;;;;-147.16;100.00;58666.56;7399323;19;20019;-65
2023/08/21 00:16:23;;;;;;;4.20;3.58;;;;;;;-147.16;100.00;58666.56;7400538;19;20509;-65
2023/08/21 00:18:51;;;;;;;6.07;3.72;;;;;;;-147.16;100.00;58666.56;7400858;19;20027;-65
2023/08/21 00:21:20;;;;;;;4.65;3.28;;;;;;;-147.16;100.00;58666.56;7400421;19;20553;-65
2023/08/21 00:23:48;;;;;;;6.53;3.45;;;;;;;-147.16;100.00;58666.56;7399176;19;20027;-66
2023/08/21 00:26:20;;;;;;;5.75;3.42;;;;;;;-147.16;100.00;58666.56;7400273;19;20017;-66
2023/08/21 00:28:49;;;;;;;7.90;3.47;;;;;;;-147.16;100.00;58666.56;7397858;19;20014;-65
2023/08/21 00:31:17;;;;;;;4.68;3.75;;;;;;;-147.16;100.00;58666.56;7398367;19;20074;-66
2023/08/21 00:33:45;;;;;;;6.22;4.28;;;;;;;-147.16;100.00;58666.56;7398944;19;20011;-66
2023/08/21 00:36:14;;;;;;;9.23;4.13;;;;;;;-147.16;100.00;58666.56;7400330;19;20018;-65
2023/08/21 00:38:43;;;;;;;8.60;4.20;;;;;;;-147.16;100.00;58666.56;7401779;19;20082;-66
2023/08/21 00:41:11;;;;;;;5.07;3.63;;;;;;;-147.16;100.00;58666.56;7400998;19;20010;-66
2023/08/21 00:43:42;;;;;;;7.85;3.45;;;;;;;-147.16;100.00;58666.56;7398862;19;20417;-65
2023/08/21 00:46:11;;;;;;;6.03;3.88;;;;;;;-147.16;100.00;58666.56;7399878;19;20377;-66
2023/08/21 00:48:40;;;;;;;5.45;4.07;;;;;;;-147.16;100.00;58666.56;7399870;19;20035;-66
2023/08/21 00:51:09;;;;;;;8.80;4.03;;;;;;;-147.16;100.00;58666.56;7398009;19;20010;-66
2023/08/21 00:53:37;;;;;;;5.20;3.72;;;;;;;-147.16;100.00;58666.56;7397957;19;20482;-66
2023/08/21 00:56:06;;;;;;;7.95;4.68;;;;;;;-147.16;100.00;58666.56;7399672;19;20032;-66
2023/08/21 00:58:35;;;;;;;5.55;4.18;;;;;;;-147.16;100.00;58666.56;7397567;19;20025;-66
2023/08/21 01:01:06;;;;;;;5.30;3.40;;;;;;;-147.16;100.00;58666.56;7399169;19;20023;-65
2023/08/21 01:03:34;;;;;;;9.10;4.82;;;;;;;-147.16;100.00;58666.56;7398447;19;20011;-66
2023/08/21 01:06:03;;;;;;;5.90;3.95;;;;;;;-147.16;100.00;58666.56;7399361;19;20083;-67
2023/08/21 01:08:43;;;;;;;5.47;3.72;;;;;;;-147.16;100.00;58666.56;7399226;19;20007;-66
2023/08/21 01:11:17;;;;;;;6.72;3.85;;;;;;;-147.16;100.00;58666.56;7397173;19;20014;-72
2023/08/21 01:13:54;;;;;;;5.20;3.40;;;;;;;-147.16;100.00;58666.56;7397420;19;20534;-74
2023/08/21 01:16:27;;;;;;;6.95;3.55;;;;;;;-147.16;100.00;58666.56;7398718;19;20003;-65
2023/08/21 01:18:57;;;;;;;5.05;3.22;;;;;;;-147.16;100.00;58666.56;7397165;19;20014;-66
2023/08/21 01:21:26;;;;;;;4.55;3.30;;;;;;;-147.16;100.00;58666.56;7398786;19;20015;-66
2023/08/21 01:24:04;;;;;;;4.78;3.78;;;;;;;-147.16;100.00;58666.56;7397363;19;20019;-66
2023/08/21 01:26:33;;;;;;;6.15;3.50;;;;;;;-147.16;100.00;58666.56;7399102;19;20435;-66
2023/08/21 01:29:01;;;;;;;8.95;3.60;;;;;;;-147.16;100.00;58666.56;7396353;19;20018;-67
2023/08/21 01:31:37;;;;;;;6.10;4.03;;;;;;;-147.16;100.00;58666.56;7396756;19;20019;-66
2023/08/21 01:34:08;;;;;;;8.98;4.03;;;;;;;-147.16;100.00;58666.56;7395862;19;20478;-66
2023/08/21 01:36:38;;;;;;;5.95;3.97;;;;;;;-147.16;100.00;58666.56;7398327;19;20372;-66
2023/08/21 01:39:09;;;;;;;7.57;3.88;;;;;;;-147.16;100.00;58666.56;7395717;19;20078;-67
2023/08/21 01:41:37;;;;;;;4.25;3.65;;;;;;;-147.16;100.00;58666.56;7397834;19;20380;-67
2023/08/21 01:44:06;;;;;;;5.47;3.95;;;;;;;-147.16;100.00;58666.56;7396510;19;20039;-67
2023/08/21 01:46:34;;;;;;;5.88;4.07;;;;;;;-147.16;100.00;58666.56;7397971;19;20031;-67
2023/08/21 01:49:03;;;;;;;5.72;3.92;;;;;;;-147.16;100.00;58666.56;7397846;19;20022;-67
2023/08/21 01:51:31;;;;;;;6.20;3.60;;;;;;;-147.16;100.00;58666.56;7396311;19;20023;-67
2023/08/21 01:54:00;;;;;;;6.97;4.53;;;;;;;-147.16;100.00;58666.56;7395724;19;20018;-67
2023/08/21 01:56:31;;;;;;;5.88;4.10;;;;;;;-147.16;100.00;58666.56;7397603;19;20018;-67
2023/08/21 01:58:59;;;;;;;5.78;3.90;;;;;;;-147.16;100.00;58666.56;7397997;19;20023;-67
2023/08/21 02:01:28;;;;;;;5.20;4.13;;;;;;;-147.16;100.00;58666.56;7398811;19;20018;-66
2023/08/21 02:03:56;;;;;;;8.18;4.65;;;;;;;-147.16;100.00;58666.56;7399502;19;20028;-67
2023/08/21 02:06:25;;;;;;;8.02;4.80;;;;;;;-147.16;100.00;58666.56;7396626;19;20023;-67
2023/08/21 02:08:53;;;;;;;6.57;4.50;;;;;;;-147.16;100.00;58666.56;7396673;19;20495;-66
2023/08/21 02:11:22;;;;;;;6.68;4.93;;;;;;;-147.16;100.00;58666.56;7395581;19;20030;-66
2023/08/21 02:13:53;;;;;;;6.55;4.95;;;;;;;-147.16;100.00;58666.56;7395477;19;20019;-66
2023/08/21 02:16:22;;;;;;;5.90;4.40;;;;;;;-147.16;100.00;58666.56;7397295;19;20022;-66
2023/08/21 02:18:50;;;;;;;8.02;4.95;;;;;;;-147.16;100.00;58666.56;7397448;19;20022;-66
2023/08/21 02:21:19;;;;;;;7.72;5.40;;;;;;;-147.16;100.00;58666.56;7397751;19;20011;-67
2023/08/21 02:23:47;;;;;;;9.70;5.38;;;;;;;-147.16;100.00;58666.56;7395659;19;20027;-66
2023/08/21 02:26:16;;;;;;;8.13;5.53;;;;;;;-147.16;100.00;58666.56;7396472;19;20376;-66
2023/08/21 02:28:45;;;;;;;6.80;5.30;;;;;;;-147.16;100.00;58666.56;7394917;19;20015;-66
2023/08/21 02:31:16;;;;;;;9.48;5.95;;;;;;;-147.16;100.00;58666.56;7395600;19;20077;-66
2023/08/21 02:33:45;;;;;;;6.78;5.43;;;;;;;-147.16;100.00;58666.56;7395559;19;20018;-66
2023/08/21 02:36:13;;;;;;;7.25;4.72;;;;;;;-147.16;100.00;58666.56;7395841;19;20380;-66
2023/08/21 02:38:42;;;;;;;5.60;4.95;;;;;;;-147.16;100.00;58666.56;7396187;19;20070;-67
2023/08/21 02:41:10;;;;;;;6.88;5.68;;;;;;;-147.16;100.00;58666.56;7393920;19;20087;-66
2023/08/21 02:43:38;;;;;;;8.20;5.03;;;;;;;-147.16;100.00;58666.56;7395549;19;20015;-66
2023/08/21 02:46:07;;;;;;;8.85;5.15;;;;;;;-147.16;100.00;58666.56;7396009;19;20433;-66
2023/08/21 02:48:38;;;;;;;7.97;5.57;;;;;;;-147.16;100.00;58666.56;7395905;19;20027;-66
2023/08/21 02:51:07;;;;;;;6.50;5.50;;;;;;;-147.16;100.00;58666.56;7393851;19;20419;-66
2023/08/21 02:53:35;;;;;;;5.68;4.45;;;;;;;-147.16;100.00;58666.56;7393996;19;20023;-66
2023/08/21 02:56:03;;;;;;;6.57;5.05;;;;;;;-147.16;100.00;58666.56;7395779;19;20011;-67
2023/08/21 02:58:32;;;;;;;5.75;4.95;;;;;;;-147.16;100.00;58666.56;7395154;19;20011;-66
2023/08/21 03:01:07;;;;;;;6.15;5.05;;;;;;;-147.16;100.00;58666.56;7395547;19;20014;-66
2023/08/21 03:03:38;;;;;;;6.15;4.30;;;;;;;-147.16;100.00;58666.56;7394140;19;20018;-66
2023/08/21 03:06:07;;;;;;;12.82;4.80;;;;;;;-147.16;100.00;58666.56;7393289;19;20513;-65
2023/08/21 03:08:35;;;;;;;6.45;5.50;;;;;;;-147.16;100.00;58666.56;7395159;19;20035;-66
2023/08/21 03:11:04;;;;;;;5.85;5.07;;;;;;;-147.16;100.00;58666.56;7393166;19;20022;-67
2023/08/21 03:13:32;;;;;;;8.50;5.88;;;;;;;-147.16;100.00;58666.56;7392936;19;20014;-67
2023/08/21 03:16:00;;;;;;;11.82;6.78;;;;;;;-147.16;100.00;58666.56;7394293;19;20014;-67
2023/08/21 03:18:34;;;;;;;8.07;5.45;;;;;;;-147.16;100.00;58666.56;7394827;19;20036;-67
2023/08/21 03:21:05;;;;;;;7.97;6.15;;;;;;;-147.16;100.00;58666.56;7399266;19;20031;-67
2023/08/21 03:23:33;;;;;;;8.63;5.15;;;;;;;-147.16;100.00;58666.56;7401474;19;20018;-67
2023/08/21 03:26:02;;;;;;;6.63;4.90;;;;;;;-147.16;100.00;58666.56;7402130;19;20482;-66
2023/08/21 03:28:30;;;;;;;8.13;5.63;;;;;;;-147.16;100.00;58666.56;7400244;19;20018;-67
2023/08/21 03:31:00;;;;;;;7.80;5.30;;;;;;;-147.16;100.00;58666.56;7401075;19;20486;-67
2023/08/21 03:33:28;;;;;;;7.43;6.65;;;;;;;-147.16;100.00;58666.56;7400820;19;20038;-67
2023/08/21 03:35:57;;;;;;;6.47;5.70;;;;;;;-147.16;100.00;58666.56;7401984;19;20023;-67
2023/08/21 03:38:28;;;;;;;8.63;4.90;;;;;;;-147.16;100.00;58666.56;7402327;19;20094;-67
2023/08/21 03:40:56;;;;;;;6.65;5.05;;;;;;;-147.16;100.00;58666.56;7399598;19;20027;-67
2023/08/21 03:43:25;;;;;;;7.40;5.60;;;;;;;-147.16;100.00;58666.56;7400609;19;20516;-67
2023/08/21 03:45:53;;;;;;;6.65;5.53;;;;;;;-147.16;100.00;58666.56;7402304;19;20011;-67
2023/08/21 03:48:22;;;;;;;9.85;5.95;;;;;;;-147.16;100.00;58666.56;7402077;19;20011;-67
2023/08/21 03:50:51;;;;;;;6.30;5.43;;;;;;;-147.16;100.00;58666.56;7400939;19;20018;-67
2023/08/21 03:53:20;;;;;;;6.93;5.45;;;;;;;-147.16;100.00;58666.56;7399096;19;20019;-66
2023/08/21 03:55:52;;;;;;;10.63;5.50;;;;;;;-147.16;100.00;58666.56;7401966;19;20018;-67
2023/08/21 03:58:20;;;;;;;7.05;4.97;;;;;;;-147.16;100.00;58666.56;7398515;19;20038;-66
2023/08/21 04:00:49;;;;;;;7.85;5.30;;;;;;;-147.16;100.00;58666.56;7398928;19;20007;-66
2023/08/21 04:03:17;;;;;;;9.10;5.15;;;;;;;-147.16;100.00;58666.56;7398701;19;20018;-66
2023/08/21 04:05:46;;;;;;;7.47;5.68;;;;;;;-147.16;100.00;58666.56;7400982;19;20027;-65
2023/08/21 04:08:14;;;;;;;8.85;5.50;;;;;;;-147.16;100.00;58666.56;7400837;19;20014;-65
2023/08/21 04:10:42;;;;;;;8.80;5.78;;;;;;;-147.16;100.00;58666.56;7398571;19;20014;-66
2023/08/21 04:13:13;;;;;;;6.53;5.85;;;;;;;-147.16;100.00;58666.56;7399944;19;20010;-66
2023/08/21 04:15:47;;;;;;;12.57;6.28;;;;;;;-147.16;100.00;58666.56;7401008;19;20418;-66
2023/08/21 04:18:15;;;;;;;7.00;5.90;;;;;;;-147.16;100.00;58666.56;7400930;19;20006;-66
2023/08/21 04:20:44;;;;;;;11.77;6.55;;;;;;;-147.16;100.00;58666.56;7400658;19;20022;-66
2023/08/21 04:23:12;;;;;;;12.73;6.32;;;;;;;-147.16;100.00;58666.56;7399581;19;20015;-66
2023/08/21 04:25:41;;;;;;;10.05;6.30;;;;;;;-147.16;100.00;58666.56;7400557;19;20072;-66
2023/08/21 04:28:10;;;;;;;8.18;5.72;;;;;;;-147.16;100.00;58666.56;7398865;19;20035;-66
2023/08/21 04:30:42;;;;;;;9.02;5.70;;;;;;;-147.16;100.00;58666.56;7400476;19;20019;-66
2023/08/21 04:33:11;;;;;;;12.05;6.50;;;;;;;-147.16;100.00;58666.56;7396650;19;20014;-66
2023/08/21 04:35:40;;;;;;;8.50;6.18;;;;;;;-147.16;100.00;58666.56;7399310;19;20023;-66
2023/08/21 04:38:09;;;;;;;8.65;6.40;;;;;;;-147.16;100.00;58666.56;7399561;19;20014;-67
2023/08/21 04:40:38;;;;;;;8.63;7.60;;;;;;;-147.16;100.00;58666.56;7397357;19;20070;-66
2023/08/21 04:43:07;;;;;;;28.45;20.15;;;;;;;-147.16;100.00;58666.56;7396910;19;20533;-67
2023/08/21 04:45:37;;;;;;;21.80;15.82;;;;;;;-147.16;100.00;58666.56;7399289;19;20031;-67
2023/08/21 04:48:08;;;;;;;10.70;7.47;;;;;;;-147.16;100.00;58666.56;7399526;19;20010;-67
2023/08/21 04:50:37;;;;;;;12.27;7.88;;;;;;;-147.16;100.00;58666.56;7400350;19;20014;-67
2023/08/21 04:53:06;;;;;;;9.18;6.93;;;;;;;-147.16;100.00;58666.56;7397460;19;20014;-67
2023/08/21 04:55:34;;;;;;;8.35;6.57;;;;;;;-147.16;100.00;58666.56;7397163;19;20382;-67
2023/08/21 04:58:03;;;;;;;12.18;6.13;;;;;;;-147.16;100.00;58666.56;7398655;19;20108;-67
2023/08/21 05:00:32;;;;;;;7.38;6.45;;;;;;;-147.16;100.00;58666.56;7397546;19;20018;-68
2023/08/21 05:03:00;;;;;;;7.88;7.07;;;;;;;-147.16;100.00;58666.56;7398375;19;20035;-68
2023/08/21 05:05:31;;;;;;;11.07;7.75;;;;;;;-147.16;100.00;58666.56;7398169;19;20502;-67
2023/08/21 05:08:00;;;;;;;10.05;6.90;;;;;;;-147.16;100.00;58666.56;7395862;19;20415;-68
2023/08/21 05:10:28;;;;;;;8.25;6.18;;;;;;;-147.16;100.00;58666.56;7398484;19;20015;-67
2023/08/21 05:13:00;;;;;;;8.52;6.68;;;;;;;-147.16;100.00;58666.56;7395376;19;20514;-66
2023/08/21 05:15:28;;;;;;;9.25;6.88;;;;;;;-147.16;100.00;58666.56;7398789;19;20018;-67
2023/08/21 05:17:56;;;;;;;12.68;7.85;;;;;;;-147.16;100.00;58666.56;7398142;19;20094;-67
2023/08/21 05:20:25;;;;;;;9.85;6.55;;;;;;;-147.16;100.00;58666.56;7398745;19;20018;-67
2023/08/21 05:22:56;;;;;;;10.30;6.97;;;;;;;-147.16;100.00;58666.56;7397497;19;20400;-67
2023/08/21 05:25:24;;;;;;;8.35;6.38;;;;;;;-147.16;100.00;58666.56;7398025;19;20530;-67
2023/08/21 05:27:53;;;;;;;9.95;6.78;;;;;;;-147.16;100.00;58666.56;7397067;19;20035;-67
2023/08/21 05:30:21;;;;;;;8.73;6.85;;;;;;;-147.16;100.00;58666.56;7398145;19;20015;-68
2023/08/21 05:32:50;;;;;;;10.02;7.18;;;;;;;-147.16;100.00;58666.56;7396201;19;20014;-68
2023/08/21 05:35:18;;;;;;;10.23;7.57;;;;;;;-147.16;100.00;58666.56;7397843;19;20545;-69
2023/08/21 05:37:48;;;;;;;8.27;7.20;;;;;;;-147.16;100.00;58666.56;7397447;19;20027;-68
2023/08/21 05:40:19;;;;;;;9.32;7.05;;;;;;;-147.16;100.00;58666.56;7397489;19;20103;-68
2023/08/21 05:42:48;;;;;;;10.45;7.18;;;;;;;-147.16;100.00;58666.56;7395158;19;20027;-68
2023/08/21 05:45:16;;;;;;;13.70;8.38;;;;;;;-147.16;100.00;58666.56;7402509;19;20018;-68
2023/08/21 05:47:45;;;;;;;11.10;7.45;;;;;;;-147.16;100.00;58666.56;7402535;19;20020;-68
2023/08/21 05:50:14;;;;;;;8.55;6.95;;;;;;;-147.16;100.00;58666.56;7401520;19;20015;-69
2023/08/21 05:52:42;;;;;;;9.75;7.25;;;;;;;-147.16;100.00;58666.56;7395323;19;20006;-68
2023/08/21 05:55:11;;;;;;;10.85;7.32;;;;;;;-147.16;100.00;58666.56;7397329;19;20032;-68
2023/08/21 05:57:42;;;;;;;10.02;7.60;;;;;;;-147.16;100.00;58666.56;7394368;19;20023;-67
2023/08/21 06:00:12;;;;;;;13.38;7.25;;;;;;;-147.16;100.00;58666.56;7394563;19;20031;-68
2023/08/21 06:02:41;;;;;;;8.68;6.30;;;;;;;-147.16;100.00;58666.56;7395898;19;20118;-68
2023/08/21 06:05:10;;;;;;;7.95;6.03;;;;;;;-147.16;100.00;58666.56;7395815;19;20477;-68
2023/08/21 06:07:40;;;;;;;8.80;6.40;;;;;;;-147.16;100.00;58666.56;7395544;19;20018;-67
2023/08/21 06:10:11;;;;;;;9.65;6.30;;;;;;;-147.16;100.00;58666.56;7395418;19;20015;-68
2023/08/21 06:12:42;;;;;;;7.55;6.20;;;;;;;-147.16;100.00;58666.56;7398441;19;20031;-68
2023/08/21 06:15:12;;;;;;;8.63;6.85;;;;;;;-147.16;100.00;58666.56;7397636;19;20010;-67
2023/08/21 06:17:41;;;;;;;8.23;7.03;;;;;;;-147.16;100.00;58666.56;7396398;19;20070;-68
2023/08/21 06:20:13;;;;;;;11.10;6.47;;;;;;;-147.16;100.00;58666.56;7396250;19;20014;-69
2023/08/21 06:22:42;;;;;;;9.52;7.18;;;;;;;-147.16;100.00;58666.56;7395588;19;20374;-69
2023/08/21 06:25:11;;;;;;;9.30;7.00;;;;;;;-147.16;100.00;58666.56;7396587;19;20024;-68
2023/08/21 06:27:43;;;;;;;10.40;7.03;;;;;;;-147.16;100.00;58666.56;7395449;19;20011;-67
2023/08/21 06:30:12;;;;;;;10.85;7.45;;;;;;;-147.16;100.00;58666.56;7396031;19;20023;-68
2023/08/21 06:32:40;;;;;;;14.98;8.38;;;;;;;-147.16;100.00;58666.56;7395583;19;20023;-68
2023/08/21 06:35:10;;;;;;;13.93;11.20;;;;;;;-147.16;100.00;58666.56;7396022;19;20015;-68
2023/08/21 06:37:38;;;;;;;14.15;10.38;;;;;;;-147.16;100.00;58666.56;7395857;19;20031;-68
2023/08/21 06:40:09;;;;;;;9.60;7.97;;;;;;;-147.16;100.00;58666.56;7395551;19;20414;-68
2023/08/21 06:42:37;;;;;;;10.10;8.15;;;;;;;-147.16;100.00;58666.56;7394786;19;20020;-68
2023/08/21 06:45:09;;;;;;;9.98;8.07;;;;;;;-147.16;100.00;58666.56;7395889;19;20010;-68
2023/08/21 06:47:38;;;;;;;18.38;12.93;;;;;;;-147.16;100.00;58666.56;7396081;19;20407;-68
2023/08/21 06:50:07;;;;;;;11.38;9.75;;;;;;;-147.16;100.00;58666.56;7395549;19;20027;-68
2023/08/21 06:52:35;;;;;;;15.00;10.05;;;;;;;-147.16;100.00;58666.56;7393994;19;20039;-68
2023/08/21 06:55:04;;;;;;;13.05;10.00;;;;;;;-147.16;100.00;58666.56;7393203;19;20066;-68
2023/08/21 06:57:32;;;;;;;11.63;9.93;;;;;;;-147.16;100.00;58666.56;7394706;19;20014;-67
2023/08/21 07:00:01;;;;;;;22.00;10.13;;;;;;;-147.16;100.00;58666.56;7394329;19;20423;-68
2023/08/21 07:02:32;;;;;;;11.48;10.48;;;;;;;-147.16;100.00;58666.56;7394932;19;20010;-68
2023/08/21 07:05:00;;;;;;;11.80;10.50;;;;;;;-147.16;100.00;58666.56;7394834;19;20037;-67
2023/08/21 07:07:29;;;;;;;11.27;10.18;;;;;;;-147.16;100.00;58666.56;7395671;19;20024;-67
2023/08/21 07:09:58;;;;;;;12.65;9.77;;;;;;;-147.16;100.00;58666.56;7394823;19;20014;-66
2023/08/21 07:12:26;;;;;;;12.38;9.70;;;;;;;-147.16;100.00;58666.56;7393921;19;20010;-69
2023/08/21 07:14:54;;;;;;;12.40;10.05;;;;;;;-147.16;100.00;58666.56;7393538;19;20411;-67
2023/08/21 07:17:23;;;;;;;10.85;9.32;;;;;;;-147.16;100.00;58666.56;7392438;19;20010;-68
2023/08/21 07:20:00;;;;;;;10.82;9.45;;;;;;;-147.16;100.00;58666.56;7394625;19;20031;-68
2023/08/21 07:22:29;;;;;;;9.88;8.05;;;;;;;-147.16;100.00;58666.56;7393959;19;20478;-69
2023/08/21 07:24:57;;;;;;;7.88;6.18;;;;;;;-147.16;100.00;58666.56;7393736;19;20498;-68
2023/08/21 07:27:26;;;;;;;7.22;5.70;;;;;;;-147.16;100.00;58666.56;7394596;19;20086;-67
2023/08/21 07:30:00;;;;;;;7.05;4.60;;;;;;;-147.16;100.00;58666.56;7392752;19;20510;-67
2023/08/21 07:32:28;;;;;;;8.00;5.57;;;;;;;-147.16;100.00;58666.56;7393524;19;20094;-68
2023/08/21 07:35:00;;;;;;;8.15;6.13;;;;;;;-147.16;100.00;58666.56;7393547;19;20082;-67
2023/08/21 07:37:28;;;;;;;8.07;5.47;;;;;;;-147.16;100.00;58666.56;7394448;19;20066;-69
2023/08/21 07:39:57;;;;;;;9.50;5.30;;;;;;;-147.16;100.00;58666.56;7393265;19;20027;-67
2023/08/21 07:42:26;;;;;;;7.82;5.10;;;;;;;-147.16;100.00;58666.56;7392003;19;20003;-68
2023/08/21 07:44:55;;;;;;;7.18;4.57;;;;;;;-147.16;100.00;58666.56;7391575;19;20477;-67
2023/08/21 07:47:23;;;;;;;8.45;4.25;;;;;;;-147.16;100.00;58666.56;7391868;19;20038;-68
2023/08/21 07:49:51;;;;;;;6.22;4.70;;;;;;;-147.16;100.00;58666.56;7391719;19;20515;-67
2023/08/21 07:52:23;;;;;;;8.23;4.43;;;;;;;-147.16;100.00;58666.56;7393408;19;20032;-68
2023/08/21 07:54:54;;;;;;;10.38;4.20;;;;;;;-147.16;100.00;58666.56;7392096;19;20023;-67
2023/08/21 07:57:22;;;;;;;8.40;4.13;;;;;;;-147.16;100.00;58666.56;7391898;19;20081;-68
2023/08/21 07:59:51;;;;;;;5.65;4.13;;;;;;;-147.16;100.00;58666.56;7392883;19;20428;-67
2023/08/21 08:02:20;;;;;;;5.07;4.22;;;;;;;-147.16;100.00;58666.56;7393516;19;20011;-68
2023/08/21 08:04:48;;;;;;;6.03;3.95;;;;;;;-147.16;100.00;58666.56;7393402;19;20018;-67
2023/08/21 08:07:17;;;;;;;10.70;4.68;;;;;;;-147.16;100.00;58666.56;7398540;19;20027;-68
2023/08/21 08:09:48;;;;;;;6.75;4.35;;;;;;;-147.16;100.00;58666.56;7400764;19;20014;-68
2023/08/21 08:12:16;;;;;;;7.60;4.30;;;;;;;-147.16;100.00;58666.56;7400171;19;20015;-68
2023/08/21 08:14:45;;;;;;;6.03;4.00;;;;;;;-147.16;100.00;58666.56;7397746;19;20035;-68
2023/08/21 08:17:13;;;;;;;4.60;2.78;;;;;;;-147.16;100.00;58666.56;7397808;19;20019;-68
2023/08/21 08:19:42;;;;;;;4.90;3.03;;;;;;;-147.16;100.00;58666.56;7400452;19;20462;-67
2023/08/21 08:22:10;;;;;;;3.83;2.55;;;;;;;-147.16;100.00;58666.56;7400341;19;20028;-68
2023/08/21 08:24:38;;;;;;;6.55;2.67;;;;;;;-147.16;100.00;58666.56;7398109;19;20019;-68
2023/08/21 08:27:10;;;;;;;5.28;2.47;;;;;;;-147.16;100.00;58666.56;7400362;19;20014;-67
2023/08/21 08:29:51;;;;;;;5.07;2.30;;;;;;;-147.16;100.00;58666.56;7398371;19;20014;-67
2023/08/21 08:32:20;;;;;;;4.72;2.72;;;;;;;-147.16;100.00;58666.56;7399400;19;20565;-68
2023/08/21 08:34:48;;;;;;;4.18;2.38;;;;;;;-147.16;100.00;58666.56;7396908;19;20473;-67
2023/08/21 08:37:16;;;;;;;6.38;2.75;;;;;;;-147.16;100.00;58666.56;7398957;19;20023;-67
2023/08/21 08:39:45;;;;;;;6.53;2.70;;;;;;;-147.16;100.00;58666.56;7399369;19;20382;-69
2023/08/21 08:42:17;;;;;;;4.25;2.38;;;;;;;-147.16;100.00;58666.56;7399141;19;20023;-68
2023/08/21 08:44:46;;;;;;;6.88;2.92;;;;;;;-147.16;100.00;58666.56;7396672;19;20014;-68
2023/08/21 08:47:15;;;;;;;5.88;1.95;;;;;;;-147.16;100.00;58666.56;7397244;19;20027;-68
2023/08/21 08:49:44;;;;;;;2.35;1.58;;;;;;;-147.16;100.00;58666.56;7399512;19;20018;-68
2023/08/21 08:52:13;;;;;;;3.65;1.40;;;;;;;-147.16;100.00;58666.56;7398689;19;20481;-68
2023/08/21 08:54:42;;;;;;;2.90;2.00;;;;;;;-147.16;100.00;58666.56;7396896;19;20018;-68
2023/08/21 08:57:10;;;;;;;3.67;1.95;;;;;;;-147.16;100.00;58666.56;7396209;19;20478;-69
2023/08/21 08:59:41;;;;;;;4.07;1.48;;;;;;;-147.16;100.00;58666.56;7396644;19;20015;-67
2023/08/21 09:02:10;;;;;;;3.28;1.77;;;;;;;-147.16;100.00;58666.56;7399431;19;20018;-68
2023/08/21 09:04:38;;;;;;;3.20;1.73;;;;;;;-147.16;100.00;58666.56;7396187;19;20502;-68
2023/08/21 09:07:10;;;;;;;3.53;1.80;;;;;;;-147.16;100.00;58666.56;7398469;19;20019;-67
2023/08/21 09:09:42;;;;;;;6.45;2.20;;;;;;;-147.16;100.00;58666.56;7398687;19;20489;-68
2023/08/21 09:12:14;;;;;;;2.92;1.70;;;;;;;-147.16;100.00;58666.56;7396602;19;20013;-68
2023/08/21 09:14:46;;;;;;;4.95;1.80;;;;;;;-147.16;100.00;58666.56;7396316;19;20015;-67
2023/08/21 09:17:15;;;;;;;5.35;2.35;;;;;;;-147.16;100.00;58666.56;7398418;19;20033;-67
2023/08/21 09:19:45;;;;;;;3.80;2.33;;;;;;;-147.16;100.00;58666.56;7396297;19;20023;-68
2023/08/21 09:22:14;;;;;;;3.55;2.30;;;;;;;-147.16;100.00;58666.56;7398314;19;20010;-68
2023/08/21 09:25:05;;;;;;;4.32;1.75;;;;;;;-147.16;100.00;58666.56;7395779;19;20018;-67
2023/08/21 09:27:35;;;;;;;7.97;2.05;;;;;;;-147.16;100.00;58666.56;7398027;19;20066;-67
2023/08/21 09:30:08;;;;;;;3.15;1.55;;;;;;;-147.16;100.00;58666.56;7395593;19;20014;-67
2023/08/21 09:32:55;;;;;;;3.45;1.67;;;;;;;-147.16;100.00;58666.56;7396290;19;20083;-67
2023/08/21 09:35:24;;;;;;;3.22;1.42;;;;;;;-147.16;100.00;58666.56;7398696;19;20095;-68
2023/08/21 09:37:53;;;;;;;4.72;1.75;;;;;;;-147.16;100.00;58666.56;7397417;19;20477;-67
2023/08/21 09:40:22;;;;;;;3.67;1.30;;;;;;;-147.16;100.00;58666.56;7397878;19;20034;-68
2023/08/21 09:42:55;;;;;;;2.97;1.60;;;;;;;-147.16;100.00;58666.56;7397119;19;20018;-68
2023/08/21 09:45:27;;;;;;;3.70;1.77;;;;;;;-147.16;100.00;58666.56;7397388;19;20025;-68
2023/08/21 09:47:56;;;;;;;5.00;1.80;;;;;;;-147.16;100.00;58666.56;7398095;19;20018;-68
2023/08/21 09:50:24;;;;;;;3.25;1.13;;;;;;;-147.16;100.00;58666.56;7397126;19;20540;-67
2023/08/21 09:52:55;;;;;;;2.78;1.30;;;;;;;-147.16;100.00;58666.56;7397043;19;20038;-69
2023/08/21 09:55:25;;;;;;;4.07;1.33;;;;;;;-147.16;100.00;58666.56;7396970;19;20481;-69
2023/08/21 09:57:58;;;;;;;3.17;1.10;;;;;;;-147.16;100.00;58666.56;7397689;19;20023;-68
2023/08/21 10:00:31;;;;;;;2.33;1.20;;;;;;;-147.16;100.00;58666.56;7396887;19;20517;-66
2023/08/21 10:03:04;;;;;;;2.63;1.20;;;;;;;-147.16;100.00;58666.56;7397342;19;20018;-68
2023/08/21 10:05:34;;;;;;;5.05;1.65;;;;;;;-147.16;100.00;58666.56;7396683;19;20382;-69
2023/08/21 10:08:05;;;;;;;3.78;1.52;;;;;;;-147.16;100.00;58666.56;7394391;19;20014;-69
2023/08/21 10:10:34;;;;;;;2.85;1.25;;;;;;;-147.16;100.00;58666.56;7396616;19;20373;-68
2023/08/21 10:13:03;;;;;;;4.00;1.63;;;;;;;-147.16;100.00;58666.56;7395994;19;20018;-68
2023/08/21 10:15:36;;;;;;;2.90;1.60;;;;;;;-147.16;100.00;58666.56;7396572;19;20015;-69
2023/08/21 10:18:23;;;;;;;4.50;1.88;;;;;;;-147.16;100.00;58666.56;7395945;19;20010;-69
2023/08/21 10:20:52;;;;;;;3.78;1.58;;;;;;;-147.16;100.00;58666.56;7396900;19;20041;-69
2023/08/21 10:23:29;;;;;;;3.13;1.40;;;;;;;-147.16;100.00;58666.56;7395641;19;20011;-69
2023/08/21 10:25:58;;;;;;;5.25;1.52;;;;;;;-147.16;100.00;58666.56;7396619;19;20024;-67
2023/08/21 10:28:26;;;;;;;3.92;1.20;;;;;;;-147.16;100.00;58666.56;7395659;19;20017;-67
2023/08/21 10:30:58;;;;;;;3.55;2.00;;;;;;;-147.16;100.00;58666.56;7394854;19;20481;-68
2023/08/21 10:33:50;;;;;;;4.93;1.30;;;;;;;-147.16;100.00;58666.56;7395679;19;20015;-68
2023/08/21 10:36:40;;;;;;;3.90;1.40;;;;;;;-147.16;100.00;58666.56;7393709;19;20011;-68
2023/08/21 10:39:16;;;;;;;3.03;1.30;;;;;;;-147.16;100.00;58666.56;7394087;19;20027;-68
2023/08/21 10:41:56;;;;;;;3.55;1.02;;;;;;;-147.16;100.00;58666.56;7396064;19;20359;-68
2023/08/21 10:44:39;;;;;;;1.42;0.77;;;;;;;-147.16;100.00;58666.56;7394474;19;20011;-68
2023/08/21 10:47:19;;;;;;;3.13;0.90;;;;;;;-147.16;100.00;58666.56;7395416;19;20019;-67
2023/08/21 10:49:49;;;;;;;6.55;1.10;;;;;;;-147.16;100.00;58666.56;7395533;19;20019;-67
2023/08/21 10:52:22;;;;;;;3.15;0.82;;;;;;;-147.16;100.00;58666.56;7395164;19;20031;-67
2023/08/21 10:54:52;;;;;;;5.32;1.90;;;;;;;-147.16;100.00;58666.56;7393318;19;20014;-67
2023/08/21 10:57:21;;;;;;;3.33;1.15;;;;;;;-147.16;100.00;58666.56;7396070;19;20031;-68
2023/08/21 11:00:03;;;;;;;2.45;1.20;;;;;;;-147.16;100.00;58666.56;7395613;19;20027;-70
2023/08/21 11:02:35;;;;;;;2.42;0.70;;;;;;;-147.16;100.00;58666.56;7395184;19;20362;-67
2023/08/21 11:05:04;;;;;;;2.35;1.08;;;;;;;-147.16;100.00;58666.56;7396022;19;20014;-69
2023/08/21 11:07:33;;;;;;;2.17;0.90;;;;;;;-147.16;100.00;58666.56;7394714;19;20014;-68
2023/08/21 11:10:02;;;;;;;4.32;1.08;;;;;;;-147.16;100.00;58666.56;7394675;19;20078;-68
2023/08/21 11:12:31;;;;;;;1.95;0.80;;;;;;;-147.16;100.00;58666.56;7394213;19;20033;-67
2023/08/21 11:14:59;;;;;;;3.75;1.10;;;;;;;-147.16;100.00;58666.56;7392851;19;20014;-67
2023/08/21 11:17:28;;;;;;;2.08;0.80;;;;;;;-147.16;100.00;58666.56;7394543;19;20449;-67
2023/08/21 11:19:59;;;;;;;1.20;0.63;;;;;;;-147.16;100.00;58666.56;7396452;19;20554;-68